sensor_id;sensor_type;location;lat;lon;timestamp;temperature;humidity
5697;DHT22;2873;50.966;7.210;2023-04-15T00:00:36;10.00;99.90
5697;DHT22;2873;50.966;7.210;2023-04-15T00:03:02;10.00;99.90
5697;DHT22;2873;50.966;7.210;2023-04-15T00:05:31;10.00;99.90
5697;DHT22;2873;50.966;7.210;2023-04-15T00:07:57;10.00;99.90
5697;DHT22;2873;50.966;7.210;2023-04-15T00:10:23;9.90;99.90
5697;DHT22;2873;50.966;7.210;2023-04-15T00:12:49;10.00;99.90
5697;DHT22;2873;50.966;7.210;2023-04-15T00:15:15;9.90;99.90
5697;DHT22;2873;50.966;7.210;2023-04-15T00:17:40;10.00;99.90
5697;DHT22;2873;50.966;7.210;2023-04-15T00:20:06;9.90;99.90
5697;DHT22;2873;50.966;7.210;2023-04-15T00:22:32;9.90;99.90
5697;DHT22;2873;50.966;7.210;2023-04-15T00:24:57;9.90;99.90
5697;DHT22;2873;50.966;7.210;2023-04-15T00:27:23;9.80;99.90
5697;DHT22;2873;50.966;7.210;2023-04-15T00:29:49;9.80;99.90
5697;DHT22;2873;50.966;7.210;2023-04-15T00:32:14;9.80;99.90
5697;DHT22;2873;50.966;7.210;2023-04-15T00:34:40;9.80;99.90
5697;DHT22;2873;50.966;7.210;2023-04-15T00:37:06;9.80;99.90
5697;DHT22;2873;50.966;7.210;2023-04-15T00:39:31;9.80;99.90
5697;DHT22;2873;50.966;7.210;2023-04-15T00:41:57;9.80;99.90
5697;DHT22;2873;50.966;7.210;2023-04-15T00:44:22;9.80;99.90
5697;DHT22;2873;50.966;7.210;2023-04-15T00:46:50;9.80;99.90
5697;DHT22;2873;50.966;7.210;2023-04-15T00:49:16;9.80;99.90
5697;DHT22;2873;50.966;7.210;2023-04-15T00:51:42;10.00;99.90
5697;DHT22;2873;50.966;7.210;2023-04-15T00:54:09;9.80;99.90
5697;DHT22;2873;50.966;7.210;2023-04-15T00:56:36;9.90;99.90
5697;DHT22;2873;50.966;7.210;2023-04-15T00:59:03;9.80;99.90
5697;DHT22;2873;50.966;7.210;2023-04-15T01:01:28;9.80;99.90
5697;DHT22;2873;50.966;7.210;2023-04-15T01:03:56;9.90;99.90
5697;DHT22;2873;50.966;7.210;2023-04-15T01:06:22;9.90;99.90
5697;DHT22;2873;50.966;7.210;2023-04-15T01:08:48;9.90;99.90
5697;DHT22;2873;50.966;7.210;2023-04-15T01:11:14;9.90;99.90
5697;DHT22;2873;50.966;7.210;2023-04-15T01:13:40;9.90;99.90
5697;DHT22;2873;50.966;7.210;2023-04-15T01:16:07;9.90;99.90
5697;DHT22;2873;50.966;7.210;2023-04-15T01:18:34;9.90;99.90
5697;DHT22;2873;50.966;7.210;2023-04-15T01:21:04;9.90;99.90
5697;DHT22;2873;50.966;7.210;2023-04-15T01:23:30;9.90;99.90
5697;DHT22;2873;50.966;7.210;2023-04-15T01:25:56;9.80;99.90
5697;DHT22;2873;50.966;7.210;2023-04-15T01:28:22;9.80;99.90
5697;DHT22;2873;50.966;7.210;2023-04-15T01:30:48;9.80;99.90
5697;DHT22;2873;50.966;7.210;2023-04-15T01:33:14;9.80;99.90
5697;DHT22;2873;50.966;7.210;2023-04-15T01:35:40;9.70;99.90
5697;DHT22;2873;50.966;7.210;2023-04-15T01:38:09;9.70;99.90
5697;DHT22;2873;50.966;7.210;2023-04-15T01:40:35;9.70;99.90
5697;DHT22;2873;50.966;7.210;2023-04-15T01:43:02;9.70;99.90
5697;DHT22;2873;50.966;7.210;2023-04-15T01:45:28;9.70;99.90
5697;DHT22;2873;50.966;7.210;2023-04-15T01:47:54;9.70;99.90
5697;DHT22;2873;50.966;7.210;2023-04-15T01:50:20;9.60;99.90
5697;DHT22;2873;50.966;7.210;2023-04-15T01:52:46;9.60;99.90
5697;DHT22;2873;50.966;7.210;2023-04-15T01:55:13;9.60;99.90
5697;DHT22;2873;50.966;7.210;2023-04-15T01:57:38;9.60;99.90
5697;DHT22;2873;50.966;7.210;2023-04-15T02:00:05;9.60;99.90
5697;DHT22;2873;50.966;7.210;2023-04-15T02:02:32;9.50;99.90
5697;DHT22;2873;50.966;7.210;2023-04-15T02:04:58;9.50;99.90
5697;DHT22;2873;50.966;7.210;2023-04-15T02:07:23;9.50;99.90
5697;DHT22;2873;50.966;7.210;2023-04-15T02:09:49;9.50;99.90
5697;DHT22;2873;50.966;7.210;2023-04-15T02:12:14;9.50;99.90
5697;DHT22;2873;50.966;7.210;2023-04-15T02:14:40;9.50;99.90
5697;DHT22;2873;50.966;7.210;2023-04-15T02:17:05;9.40;99.90
5697;DHT22;2873;50.966;7.210;2023-04-15T02:19:34;9.40;99.90
5697;DHT22;2873;50.966;7.210;2023-04-15T02:22:00;9.30;99.90
5697;DHT22;2873;50.966;7.210;2023-04-15T02:24:27;9.30;99.90
5697;DHT22;2873;50.966;7.210;2023-04-15T02:26:53;9.20;99.90
5697;DHT22;2873;50.966;7.210;2023-04-15T02:29:18;9.10;99.90
5697;DHT22;2873;50.966;7.210;2023-04-15T02:31:44;9.00;99.90
5697;DHT22;2873;50.966;7.210;2023-04-15T02:34:10;8.90;99.90
5697;DHT22;2873;50.966;7.210;2023-04-15T02:36:36;9.00;99.90
5697;DHT22;2873;50.966;7.210;2023-04-15T02:39:02;8.90;99.90
5697;DHT22;2873;50.966;7.210;2023-04-15T02:41:28;8.80;99.90
5697;DHT22;2873;50.966;7.210;2023-04-15T02:43:54;8.80;99.90
5697;DHT22;2873;50.966;7.210;2023-04-15T02:46:20;8.70;99.90
5697;DHT22;2873;50.966;7.210;2023-04-15T02:48:47;8.70;99.90
5697;DHT22;2873;50.966;7.210;2023-04-15T02:51:17;8.60;99.90
5697;DHT22;2873;50.966;7.210;2023-04-15T02:53:47;8.70;99.90
5697;DHT22;2873;50.966;7.210;2023-04-15T02:56:13;8.70;99.90
5697;DHT22;2873;50.966;7.210;2023-04-15T02:58:40;8.60;99.90
5697;DHT22;2873;50.966;7.210;2023-04-15T03:01:06;8.60;99.90
5697;DHT22;2873;50.966;7.210;2023-04-15T03:03:33;8.60;99.90
5697;DHT22;2873;50.966;7.210;2023-04-15T03:05:59;8.60;99.90
5697;DHT22;2873;50.966;7.210;2023-04-15T03:08:24;8.60;99.90
5697;DHT22;2873;50.966;7.210;2023-04-15T03:10:50;8.50;99.90
5697;DHT22;2873;50.966;7.210;2023-04-15T03:13:17;8.50;99.90
5697;DHT22;2873;50.966;7.210;2023-04-15T03:15:45;8.50;99.90
5697;DHT22;2873;50.966;7.210;2023-04-15T03:18:10;8.50;99.90
5697;DHT22;2873;50.966;7.210;2023-04-15T03:20:36;8.40;99.90
5697;DHT22;2873;50.966;7.210;2023-04-15T03:23:02;8.40;99.90
5697;DHT22;2873;50.966;7.210;2023-04-15T03:25:27;8.40;99.90
5697;DHT22;2873;50.966;7.210;2023-04-15T03:27:53;8.40;99.90
5697;DHT22;2873;50.966;7.210;2023-04-15T03:30:18;8.40;99.90
5697;DHT22;2873;50.966;7.210;2023-04-15T03:32:44;8.40;99.90
5697;DHT22;2873;50.966;7.210;2023-04-15T03:35:09;8.40;99.90
5697;DHT22;2873;50.966;7.210;2023-04-15T03:37:35;8.40;99.90
5697;DHT22;2873;50.966;7.210;2023-04-15T03:40:01;8.40;99.90
5697;DHT22;2873;50.966;7.210;2023-04-15T03:42:27;8.40;99.90
5697;DHT22;2873;50.966;7.210;2023-04-15T03:44:52;8.30;99.90
5697;DHT22;2873;50.966;7.210;2023-04-15T03:47:18;8.30;99.90
5697;DHT22;2873;50.966;7.210;2023-04-15T03:49:43;8.30;99.90
5697;DHT22;2873;50.966;7.210;2023-04-15T03:52:09;8.40;99.90
5697;DHT22;2873;50.966;7.210;2023-04-15T03:54:34;8.30;99.90
5697;DHT22;2873;50.966;7.210;2023-04-15T03:57:00;8.30;99.90
5697;DHT22;2873;50.966;7.210;2023-04-15T03:59:26;8.30;99.90
5697;DHT22;2873;50.966;7.210;2023-04-15T04:01:51;8.30;99.90
5697;DHT22;2873;50.966;7.210;2023-04-15T04:04:17;8.30;99.90
5697;DHT22;2873;50.966;7.210;2023-04-15T04:06:42;8.30;99.90
5697;DHT22;2873;50.966;7.210;2023-04-15T04:09:08;8.30;99.90
5697;DHT22;2873;50.966;7.210;2023-04-15T04:11:33;8.30;99.90
5697;DHT22;2873;50.966;7.210;2023-04-15T04:13:59;8.30;99.90
5697;DHT22;2873;50.966;7.210;2023-04-15T04:16:25;8.30;99.90
5697;DHT22;2873;50.966;7.210;2023-04-15T04:18:50;8.20;99.90
5697;DHT22;2873;50.966;7.210;2023-04-15T04:21:16;8.20;99.90
5697;DHT22;2873;50.966;7.210;2023-04-15T04:23:42;8.10;99.90
5697;DHT22;2873;50.966;7.210;2023-04-15T04:26:07;8.00;99.90
5697;DHT22;2873;50.966;7.210;2023-04-15T04:28:33;7.90;99.90
5697;DHT22;2873;50.966;7.210;2023-04-15T04:30:59;7.80;99.90
5697;DHT22;2873;50.966;7.210;2023-04-15T04:33:25;7.70;99.90
5697;DHT22;2873;50.966;7.210;2023-04-15T04:35:51;7.60;99.90
5697;DHT22;2873;50.966;7.210;2023-04-15T04:38:16;7.60;99.90
5697;DHT22;2873;50.966;7.210;2023-04-15T04:40:42;7.60;99.90
5697;DHT22;2873;50.966;7.210;2023-04-15T04:43:07;7.60;99.90
5697;DHT22;2873;50.966;7.210;2023-04-15T04:45:33;7.60;99.90
5697;DHT22;2873;50.966;7.210;2023-04-15T04:47:59;7.40;99.90
5697;DHT22;2873;50.966;7.210;2023-04-15T04:50:24;7.40;99.90
5697;DHT22;2873;50.966;7.210;2023-04-15T04:52:50;7.50;99.90
5697;DHT22;2873;50.966;7.210;2023-04-15T04:55:16;7.40;99.90
5697;DHT22;2873;50.966;7.210;2023-04-15T04:57:41;7.40;99.90
5697;DHT22;2873;50.966;7.210;2023-04-15T05:00:07;7.30;99.90
5697;DHT22;2873;50.966;7.210;2023-04-15T05:02:33;7.30;99.90
5697;DHT22;2873;50.966;7.210;2023-04-15T05:04:59;7.30;99.90
5697;DHT22;2873;50.966;7.210;2023-04-15T05:07:25;7.20;99.90
5697;DHT22;2873;50.966;7.210;2023-04-15T05:09:50;7.20;99.90
5697;DHT22;2873;50.966;7.210;2023-04-15T05:12:16;7.20;99.90
5697;DHT22;2873;50.966;7.210;2023-04-15T05:14:42;7.20;99.90
5697;DHT22;2873;50.966;7.210;2023-04-15T05:17:08;7.20;99.90
5697;DHT22;2873;50.966;7.210;2023-04-15T05:19:34;7.30;99.90
5697;DHT22;2873;50.966;7.210;2023-04-15T05:22:00;7.30;99.90
5697;DHT22;2873;50.966;7.210;2023-04-15T05:24:25;7.40;99.90
5697;DHT22;2873;50.966;7.210;2023-04-15T05:26:51;7.40;99.90
5697;DHT22;2873;50.966;7.210;2023-04-15T05:29:17;7.40;99.90
5697;DHT22;2873;50.966;7.210;2023-04-15T05:31:42;7.30;99.90
5697;DHT22;2873;50.966;7.210;2023-04-15T05:34:08;7.30;99.90
5697;DHT22;2873;50.966;7.210;2023-04-15T05:36:34;7.30;99.90
5697;DHT22;2873;50.966;7.210;2023-04-15T05:39:00;7.40;99.90
5697;DHT22;2873;50.966;7.210;2023-04-15T05:41:26;7.40;99.90
5697;DHT22;2873;50.966;7.210;2023-04-15T05:43:51;7.40;99.90
5697;DHT22;2873;50.966;7.210;2023-04-15T05:46:17;7.50;99.90
5697;DHT22;2873;50.966;7.210;2023-04-15T05:48:42;7.50;99.90
5697;DHT22;2873;50.966;7.210;2023-04-15T05:51:08;7.60;99.90
5697;DHT22;2873;50.966;7.210;2023-04-15T05:53:34;7.60;99.90
5697;DHT22;2873;50.966;7.210;2023-04-15T05:56:00;7.60;99.90
5697;DHT22;2873;50.966;7.210;2023-04-15T05:58:25;7.70;99.90
5697;DHT22;2873;50.966;7.210;2023-04-15T06:00:51;7.80;99.90
5697;DHT22;2873;50.966;7.210;2023-04-15T06:03:17;7.80;99.90
5697;DHT22;2873;50.966;7.210;2023-04-15T06:05:42;7.90;99.90
5697;DHT22;2873;50.966;7.210;2023-04-15T06:08:09;7.90;99.90
5697;DHT22;2873;50.966;7.210;2023-04-15T06:10:35;7.90;99.90
5697;DHT22;2873;50.966;7.210;2023-04-15T06:13:04;8.00;99.90
5697;DHT22;2873;50.966;7.210;2023-04-15T06:15:29;8.00;99.90
5697;DHT22;2873;50.966;7.210;2023-04-15T06:17:55;8.20;99.90
5697;DHT22;2873;50.966;7.210;2023-04-15T06:20:21;8.30;99.90
5697;DHT22;2873;50.966;7.210;2023-04-15T06:22:46;8.40;99.90
5697;DHT22;2873;50.966;7.210;2023-04-15T06:25:12;8.50;99.90
5697;DHT22;2873;50.966;7.210;2023-04-15T06:27:38;8.60;99.90
5697;DHT22;2873;50.966;7.210;2023-04-15T06:30:04;8.80;99.90
5697;DHT22;2873;50.966;7.210;2023-04-15T06:32:31;8.90;99.90
5697;DHT22;2873;50.966;7.210;2023-04-15T06:34:57;9.20;99.90
5697;DHT22;2873;50.966;7.210;2023-04-15T06:37:22;9.30;99.90
5697;DHT22;2873;50.966;7.210;2023-04-15T06:39:50;9.50;99.90
5697;DHT22;2873;50.966;7.210;2023-04-15T06:42:16;9.70;99.90
5697;DHT22;2873;50.966;7.210;2023-04-15T06:44:41;9.90;99.90
5697;DHT22;2873;50.966;7.210;2023-04-15T06:47:07;10.10;99.90
5697;DHT22;2873;50.966;7.210;2023-04-15T06:49:33;10.20;99.90
5697;DHT22;2873;50.966;7.210;2023-04-15T06:51:59;10.40;99.90
5697;DHT22;2873;50.966;7.210;2023-04-15T06:54:25;10.60;99.90
5697;DHT22;2873;50.966;7.210;2023-04-15T06:56:51;10.70;99.90
5697;DHT22;2873;50.966;7.210;2023-04-15T06:59:16;10.90;99.90
5697;DHT22;2873;50.966;7.210;2023-04-15T07:01:42;11.00;99.90
5697;DHT22;2873;50.966;7.210;2023-04-15T07:04:08;11.20;99.90
5697;DHT22;2873;50.966;7.210;2023-04-15T07:06:33;11.20;99.90
5697;DHT22;2873;50.966;7.210;2023-04-15T07:09:00;11.30;99.90
5697;DHT22;2873;50.966;7.210;2023-04-15T07:11:27;11.40;99.90
5697;DHT22;2873;50.966;7.210;2023-04-15T07:13:53;11.60;99.90
5697;DHT22;2873;50.966;7.210;2023-04-15T07:16:18;11.60;99.90
5697;DHT22;2873;50.966;7.210;2023-04-15T07:18:44;11.70;99.90
5697;DHT22;2873;50.966;7.210;2023-04-15T07:21:10;11.80;99.90
5697;DHT22;2873;50.966;7.210;2023-04-15T07:23:36;11.80;99.90
5697;DHT22;2873;50.966;7.210;2023-04-15T07:26:02;11.90;99.90
5697;DHT22;2873;50.966;7.210;2023-04-15T07:28:28;11.90;99.90
5697;DHT22;2873;50.966;7.210;2023-04-15T07:30:54;12.00;99.90
5697;DHT22;2873;50.966;7.210;2023-04-15T07:33:20;12.10;99.90
5697;DHT22;2873;50.966;7.210;2023-04-15T07:35:45;12.10;99.90
5697;DHT22;2873;50.966;7.210;2023-04-15T07:38:11;12.20;99.90
5697;DHT22;2873;50.966;7.210;2023-04-15T07:40:38;12.20;99.90
5697;DHT22;2873;50.966;7.210;2023-04-15T07:43:04;12.30;99.90
5697;DHT22;2873;50.966;7.210;2023-04-15T07:45:33;12.30;99.90
5697;DHT22;2873;50.966;7.210;2023-04-15T07:48:00;12.30;99.90
5697;DHT22;2873;50.966;7.210;2023-04-15T07:50:26;12.50;99.90
5697;DHT22;2873;50.966;7.210;2023-04-15T07:52:52;12.50;99.90
5697;DHT22;2873;50.966;7.210;2023-04-15T07:55:18;12.60;99.90
5697;DHT22;2873;50.966;7.210;2023-04-15T07:57:45;12.80;99.90
5697;DHT22;2873;50.966;7.210;2023-04-15T08:00:12;12.90;99.90
5697;DHT22;2873;50.966;7.210;2023-04-15T08:02:38;13.10;99.90
5697;DHT22;2873;50.966;7.210;2023-04-15T08:08:25;13.30;99.90
5697;DHT22;2873;50.966;7.210;2023-04-15T08:10:51;13.30;99.90
5697;DHT22;2873;50.966;7.210;2023-04-15T08:13:17;13.30;99.90
5697;DHT22;2873;50.966;7.210;2023-04-15T08:15:42;13.40;99.90
5697;DHT22;2873;50.966;7.210;2023-04-15T08:18:08;13.40;99.90
5697;DHT22;2873;50.966;7.210;2023-04-15T08:20:34;13.50;99.90
5697;DHT22;2873;50.966;7.210;2023-04-15T08:22:59;13.50;99.90
5697;DHT22;2873;50.966;7.210;2023-04-15T08:25:25;13.40;99.90
5697;DHT22;2873;50.966;7.210;2023-04-15T08:27:54;13.40;99.90
5697;DHT22;2873;50.966;7.210;2023-04-15T08:30:19;13.30;99.90
5697;DHT22;2873;50.966;7.210;2023-04-15T08:32:46;13.40;99.90
5697;DHT22;2873;50.966;7.210;2023-04-15T08:35:12;13.40;99.90
5697;DHT22;2873;50.966;7.210;2023-04-15T08:37:37;13.40;99.90
5697;DHT22;2873;50.966;7.210;2023-04-15T08:40:03;13.40;99.90
5697;DHT22;2873;50.966;7.210;2023-04-15T08:42:36;13.50;99.90
5697;DHT22;2873;50.966;7.210;2023-04-15T08:45:08;13.60;99.90
5697;DHT22;2873;50.966;7.210;2023-04-15T08:47:36;13.70;99.90
5697;DHT22;2873;50.966;7.210;2023-04-15T08:50:03;13.70;99.90
5697;DHT22;2873;50.966;7.210;2023-04-15T08:52:30;13.90;99.90
5697;DHT22;2873;50.966;7.210;2023-04-15T08:54:57;14.10;99.90
5697;DHT22;2873;50.966;7.210;2023-04-15T08:57:26;14.10;99.90
5697;DHT22;2873;50.966;7.210;2023-04-15T08:59:54;14.10;99.90
5697;DHT22;2873;50.966;7.210;2023-04-15T09:02:20;14.10;99.90
5697;DHT22;2873;50.966;7.210;2023-04-15T09:04:47;14.30;99.90
5697;DHT22;2873;50.966;7.210;2023-04-15T09:07:13;14.40;99.90
5697;DHT22;2873;50.966;7.210;2023-04-15T09:09:38;14.40;99.90
5697;DHT22;2873;50.966;7.210;2023-04-15T09:12:07;14.40;99.90
5697;DHT22;2873;50.966;7.210;2023-04-15T09:14:32;14.40;99.90
5697;DHT22;2873;50.966;7.210;2023-04-15T09:17:00;14.60;99.90
5697;DHT22;2873;50.966;7.210;2023-04-15T09:19:27;14.60;99.90
5697;DHT22;2873;50.966;7.210;2023-04-15T09:21:53;14.80;99.90
5697;DHT22;2873;50.966;7.210;2023-04-15T09:24:21;14.90;99.90
5697;DHT22;2873;50.966;7.210;2023-04-15T09:26:47;15.10;99.90
5697;DHT22;2873;50.966;7.210;2023-04-15T09:29:16;15.10;99.90
5697;DHT22;2873;50.966;7.210;2023-04-15T09:31:43;15.30;99.90
5697;DHT22;2873;50.966;7.210;2023-04-15T09:34:08;15.50;99.90
5697;DHT22;2873;50.966;7.210;2023-04-15T09:39:12;15.50;99.90
5697;DHT22;2873;50.966;7.210;2023-04-15T09:41:38;15.50;99.90
5697;DHT22;2873;50.966;7.210;2023-04-15T09:44:04;15.50;99.90
5697;DHT22;2873;50.966;7.210;2023-04-15T09:46:43;15.50;99.90
5697;DHT22;2873;50.966;7.210;2023-04-15T09:49:10;15.50;99.90
5697;DHT22;2873;50.966;7.210;2023-04-15T09:51:36;15.40;99.90
5697;DHT22;2873;50.966;7.210;2023-04-15T09:54:02;15.50;99.90
5697;DHT22;2873;50.966;7.210;2023-04-15T09:56:36;15.50;99.90
5697;DHT22;2873;50.966;7.210;2023-04-15T09:59:04;15.40;99.90
5697;DHT22;2873;50.966;7.210;2023-04-15T10:01:30;15.20;99.90
5697;DHT22;2873;50.966;7.210;2023-04-15T10:03:56;15.30;99.90
5697;DHT22;2873;50.966;7.210;2023-04-15T10:06:24;15.30;99.90
5697;DHT22;2873;50.966;7.210;2023-04-15T10:08:51;15.40;99.90
5697;DHT22;2873;50.966;7.210;2023-04-15T10:11:19;15.40;99.90
5697;DHT22;2873;50.966;7.210;2023-04-15T10:13:45;15.50;99.90
5697;DHT22;2873;50.966;7.210;2023-04-15T10:16:15;15.70;99.90
5697;DHT22;2873;50.966;7.210;2023-04-15T10:18:46;16.00;99.90
5697;DHT22;2873;50.966;7.210;2023-04-15T10:21:12;16.30;99.90
5697;DHT22;2873;50.966;7.210;2023-04-15T10:23:40;16.20;99.90
5697;DHT22;2873;50.966;7.210;2023-04-15T10:26:07;16.50;99.90
5697;DHT22;2873;50.966;7.210;2023-04-15T10:28:34;16.40;99.90
5697;DHT22;2873;50.966;7.210;2023-04-15T10:31:00;16.70;99.90
5697;DHT22;2873;50.966;7.210;2023-04-15T10:33:26;16.80;99.90
5697;DHT22;2873;50.966;7.210;2023-04-15T10:35:54;16.80;99.90
5697;DHT22;2873;50.966;7.210;2023-04-15T10:41:23;16.80;99.90
5697;DHT22;2873;50.966;7.210;2023-04-15T10:44:02;16.80;99.90
5697;DHT22;2873;50.966;7.210;2023-04-15T10:46:44;16.90;99.90
5697;DHT22;2873;50.966;7.210;2023-04-15T10:51:40;16.80;99.90
5697;DHT22;2873;50.966;7.210;2023-04-15T10:54:14;16.90;99.90
5697;DHT22;2873;50.966;7.210;2023-04-15T10:59:28;17.20;99.90
5697;DHT22;2873;50.966;7.210;2023-04-15T11:01:59;16.90;99.90
5697;DHT22;2873;50.966;7.210;2023-04-15T11:04:55;16.90;99.90
5697;DHT22;2873;50.966;7.210;2023-04-15T11:07:39;17.00;99.90
5697;DHT22;2873;50.966;7.210;2023-04-15T11:12:52;16.60;99.90
5697;DHT22;2873;50.966;7.210;2023-04-15T11:15:35;16.90;99.90
5697;DHT22;2873;50.966;7.210;2023-04-15T11:18:12;16.70;99.90
5697;DHT22;2873;50.966;7.210;2023-04-15T11:20:39;16.50;99.90
5697;DHT22;2873;50.966;7.210;2023-04-15T11:23:05;16.40;99.90
5697;DHT22;2873;50.966;7.210;2023-04-15T11:25:32;16.50;99.90
5697;DHT22;2873;50.966;7.210;2023-04-15T11:27:59;16.40;99.90
5697;DHT22;2873;50.966;7.210;2023-04-15T11:30:28;16.60;99.90
5697;DHT22;2873;50.966;7.210;2023-04-15T11:32:58;16.90;99.90
5697;DHT22;2873;50.966;7.210;2023-04-15T11:35:24;17.20;99.90
5697;DHT22;2873;50.966;7.210;2023-04-15T11:37:49;17.10;99.90
5697;DHT22;2873;50.966;7.210;2023-04-15T11:40:16;17.10;99.90
5697;DHT22;2873;50.966;7.210;2023-04-15T11:42:43;16.80;99.90
5697;DHT22;2873;50.966;7.210;2023-04-15T11:45:13;16.40;99.90
5697;DHT22;2873;50.966;7.210;2023-04-15T11:47:40;16.40;99.90
5697;DHT22;2873;50.966;7.210;2023-04-15T11:50:20;16.00;99.90
5697;DHT22;2873;50.966;7.210;2023-04-15T11:55:18;15.30;99.90
5697;DHT22;2873;50.966;7.210;2023-04-15T11:57:44;15.10;99.90
5697;DHT22;2873;50.966;7.210;2023-04-15T12:00:10;15.00;99.90
5697;DHT22;2873;50.966;7.210;2023-04-15T12:02:36;14.90;99.90
5697;DHT22;2873;50.966;7.210;2023-04-15T12:05:03;14.50;99.90
5697;DHT22;2873;50.966;7.210;2023-04-15T12:07:29;14.40;99.90
5697;DHT22;2873;50.966;7.210;2023-04-15T12:09:55;14.20;99.90
5697;DHT22;2873;50.966;7.210;2023-04-15T12:12:28;14.20;99.90
5697;DHT22;2873;50.966;7.210;2023-04-15T12:14:58;14.00;99.90
5697;DHT22;2873;50.966;7.210;2023-04-15T12:17:24;13.90;99.90
5697;DHT22;2873;50.966;7.210;2023-04-15T12:19:55;13.70;99.90
5697;DHT22;2873;50.966;7.210;2023-04-15T12:22:21;13.70;99.90
5697;DHT22;2873;50.966;7.210;2023-04-15T12:24:53;13.70;99.90
5697;DHT22;2873;50.966;7.210;2023-04-15T12:27:25;13.80;99.90
5697;DHT22;2873;50.966;7.210;2023-04-15T12:30:03;13.60;99.90
5697;DHT22;2873;50.966;7.210;2023-04-15T12:32:29;13.40;99.90
5697;DHT22;2873;50.966;7.210;2023-04-15T12:34:54;13.40;99.90
5697;DHT22;2873;50.966;7.210;2023-04-15T12:37:20;13.40;99.90
5697;DHT22;2873;50.966;7.210;2023-04-15T12:39:48;13.30;99.90
5697;DHT22;2873;50.966;7.210;2023-04-15T12:42:14;13.10;99.90
5697;DHT22;2873;50.966;7.210;2023-04-15T12:44:40;13.10;99.90
5697;DHT22;2873;50.966;7.210;2023-04-15T12:47:07;13.20;99.90
5697;DHT22;2873;50.966;7.210;2023-04-15T12:49:33;13.30;99.90
5697;DHT22;2873;50.966;7.210;2023-04-15T12:52:00;13.30;99.90
5697;DHT22;2873;50.966;7.210;2023-04-15T12:54:26;13.20;99.90
5697;DHT22;2873;50.966;7.210;2023-04-15T12:56:53;13.30;99.90
5697;DHT22;2873;50.966;7.210;2023-04-15T12:59:19;13.30;99.90
5697;DHT22;2873;50.966;7.210;2023-04-15T13:01:46;13.20;99.90
5697;DHT22;2873;50.966;7.210;2023-04-15T13:04:13;13.20;99.90
5697;DHT22;2873;50.966;7.210;2023-04-15T13:06:38;12.90;99.90
5697;DHT22;2873;50.966;7.210;2023-04-15T13:09:04;12.90;99.90
5697;DHT22;2873;50.966;7.210;2023-04-15T13:11:30;12.70;99.90
5697;DHT22;2873;50.966;7.210;2023-04-15T13:13:59;12.90;99.90
5697;DHT22;2873;50.966;7.210;2023-04-15T13:16:25;12.90;99.90
5697;DHT22;2873;50.966;7.210;2023-04-15T13:18:50;12.80;99.90
5697;DHT22;2873;50.966;7.210;2023-04-15T13:21:17;12.90;99.90
5697;DHT22;2873;50.966;7.210;2023-04-15T13:23:42;12.70;99.90
5697;DHT22;2873;50.966;7.210;2023-04-15T13:26:08;12.90;99.90
5697;DHT22;2873;50.966;7.210;2023-04-15T13:28:34;13.00;99.90
5697;DHT22;2873;50.966;7.210;2023-04-15T13:31:00;13.00;99.90
5697;DHT22;2873;50.966;7.210;2023-04-15T13:33:26;13.10;99.90
5697;DHT22;2873;50.966;7.210;2023-04-15T13:35:51;13.00;99.90
5697;DHT22;2873;50.966;7.210;2023-04-15T13:38:17;13.00;99.90
5697;DHT22;2873;50.966;7.210;2023-04-15T13:40:43;13.20;99.90
5697;DHT22;2873;50.966;7.210;2023-04-15T13:43:08;13.00;99.90
5697;DHT22;2873;50.966;7.210;2023-04-15T13:45:34;13.10;99.90
5697;DHT22;2873;50.966;7.210;2023-04-15T13:48:00;13.30;99.90
5697;DHT22;2873;50.966;7.210;2023-04-15T13:50:27;13.30;99.90
5697;DHT22;2873;50.966;7.210;2023-04-15T13:52:52;13.40;99.90
5697;DHT22;2873;50.966;7.210;2023-04-15T13:55:18;13.30;99.90
5697;DHT22;2873;50.966;7.210;2023-04-15T13:57:43;13.10;99.90
5697;DHT22;2873;50.966;7.210;2023-04-15T14:00:10;13.20;99.90
5697;DHT22;2873;50.966;7.210;2023-04-15T14:02:36;13.20;99.90
5697;DHT22;2873;50.966;7.210;2023-04-15T14:05:01;13.40;99.90
5697;DHT22;2873;50.966;7.210;2023-04-15T14:07:28;13.50;99.90
5697;DHT22;2873;50.966;7.210;2023-04-15T14:09:55;13.40;99.90
5697;DHT22;2873;50.966;7.210;2023-04-15T14:12:21;13.50;99.90
5697;DHT22;2873;50.966;7.210;2023-04-15T14:14:46;13.50;99.90
5697;DHT22;2873;50.966;7.210;2023-04-15T14:17:12;13.60;99.90
5697;DHT22;2873;50.966;7.210;2023-04-15T14:19:38;13.50;99.90
5697;DHT22;2873;50.966;7.210;2023-04-15T14:22:04;13.50;99.90
5697;DHT22;2873;50.966;7.210;2023-04-15T14:24:29;13.60;99.90
5697;DHT22;2873;50.966;7.210;2023-04-15T14:26:55;13.50;99.90
5697;DHT22;2873;50.966;7.210;2023-04-15T14:29:21;13.40;99.90
5697;DHT22;2873;50.966;7.210;2023-04-15T14:31:47;13.50;99.90
5697;DHT22;2873;50.966;7.210;2023-04-15T14:34:14;13.40;99.90
5697;DHT22;2873;50.966;7.210;2023-04-15T14:36:40;13.50;99.90
5697;DHT22;2873;50.966;7.210;2023-04-15T14:39:06;13.50;99.90
5697;DHT22;2873;50.966;7.210;2023-04-15T14:41:32;13.50;99.90
5697;DHT22;2873;50.966;7.210;2023-04-15T14:43:58;13.50;99.90
5697;DHT22;2873;50.966;7.210;2023-04-15T14:46:24;13.60;99.90
5697;DHT22;2873;50.966;7.210;2023-04-15T14:48:50;13.50;99.90
5697;DHT22;2873;50.966;7.210;2023-04-15T14:51:16;13.50;99.90
5697;DHT22;2873;50.966;7.210;2023-04-15T14:53:42;13.30;99.90
5697;DHT22;2873;50.966;7.210;2023-04-15T14:56:08;13.30;99.90
5697;DHT22;2873;50.966;7.210;2023-04-15T14:58:34;13.30;99.90
5697;DHT22;2873;50.966;7.210;2023-04-15T15:01:00;13.50;99.90
5697;DHT22;2873;50.966;7.210;2023-04-15T15:03:27;13.60;99.90
5697;DHT22;2873;50.966;7.210;2023-04-15T15:05:53;13.70;99.90
5697;DHT22;2873;50.966;7.210;2023-04-15T15:08:19;13.70;99.90
5697;DHT22;2873;50.966;7.210;2023-04-15T15:10:44;13.60;99.90
5697;DHT22;2873;50.966;7.210;2023-04-15T15:13:10;13.60;99.90
5697;DHT22;2873;50.966;7.210;2023-04-15T15:15:36;13.60;99.90
5697;DHT22;2873;50.966;7.210;2023-04-15T15:18:02;13.60;99.90
5697;DHT22;2873;50.966;7.210;2023-04-15T15:20:28;13.50;99.90
5697;DHT22;2873;50.966;7.210;2023-04-15T15:22:54;13.50;99.90
5697;DHT22;2873;50.966;7.210;2023-04-15T15:25:20;13.40;99.90
5697;DHT22;2873;50.966;7.210;2023-04-15T15:27:45;13.30;99.90
5697;DHT22;2873;50.966;7.210;2023-04-15T15:30:12;13.30;99.90
5697;DHT22;2873;50.966;7.210;2023-04-15T15:32:39;13.30;99.90
5697;DHT22;2873;50.966;7.210;2023-04-15T15:35:05;13.30;99.90
5697;DHT22;2873;50.966;7.210;2023-04-15T15:37:31;13.20;99.90
5697;DHT22;2873;50.966;7.210;2023-04-15T15:39:57;13.30;99.90
5697;DHT22;2873;50.966;7.210;2023-04-15T15:42:23;13.10;99.90
5697;DHT22;2873;50.966;7.210;2023-04-15T15:44:49;13.10;99.90
5697;DHT22;2873;50.966;7.210;2023-04-15T15:47:17;12.90;99.90
5697;DHT22;2873;50.966;7.210;2023-04-15T15:49:43;12.90;99.90
5697;DHT22;2873;50.966;7.210;2023-04-15T15:52:09;12.80;99.90
5697;DHT22;2873;50.966;7.210;2023-04-15T15:54:34;12.80;99.90
5697;DHT22;2873;50.966;7.210;2023-04-15T15:57:02;13.00;99.90
5697;DHT22;2873;50.966;7.210;2023-04-15T15:59:28;12.80;99.90
5697;DHT22;2873;50.966;7.210;2023-04-15T16:01:53;12.60;99.90
5697;DHT22;2873;50.966;7.210;2023-04-15T16:04:19;12.60;99.90
5697;DHT22;2873;50.966;7.210;2023-04-15T16:06:45;12.60;99.90
5697;DHT22;2873;50.966;7.210;2023-04-15T16:09:11;12.50;99.90
5697;DHT22;2873;50.966;7.210;2023-04-15T16:11:37;12.50;99.90
5697;DHT22;2873;50.966;7.210;2023-04-15T16:14:03;12.50;99.90
5697;DHT22;2873;50.966;7.210;2023-04-15T16:16:29;12.60;99.90
5697;DHT22;2873;50.966;7.210;2023-04-15T16:18:56;12.50;99.90
5697;DHT22;2873;50.966;7.210;2023-04-15T16:21:22;12.60;99.90